Maracai, Brazil
Current Conditions -  °F | °C
As of 2:00 PM on Friday 24 Oct 2014 (Local Time) from SBDN Reporting Station
Overcast Overcast  
Wind Chill: 81°   Ceiling: 10000
Heat Index: 82°   Visibility: 6mi
Dew Point: 64°   Wind: 7mph
Humidity: 58%   Direction: 90°E
Pressure: 29.97"   Gusts: NA
Location:  22.61°S, 50.67°W
Report Text: SBDN 241600Z 09006KT 9999 SCT030 SCT050 OVC100 27/18 Q1015
Loading
Personal Weather Stations






























Interactive Weather Map
Tropical Storm Tracking
New forecast layout! Learn more

10-Day Weather Forecast

Advertisements
Track Severe Weather on mobile